Time,TemperatureF,DewpointF,PressureIn,WindDirection,WindDirectionDegrees,WindSpeedMPH,WindSpeedGustMPH,Humidity,HourlyPrecipIn,Conditions,Clouds,dailyrainin,SoftwareType,DateUTC
2015-05-04 00:01:00,61.1,57.5,29.84,NNE,28,2.0,2.0,88,0.00,,,0.00,Wunderground v.1.15,2015-05-04 05:01:00,
2015-05-04 00:11:00,60.5,56.6,29.85,North,9,3.0,3.0,87,0.00,,,0.00,Wunderground v.1.15,2015-05-04 05:11:00,
2015-05-04 00:21:00,60.0,56.4,29.84,NNE,19,3.0,3.0,88,0.00,,,0.00,Wunderground v.1.15,2015-05-04 05:21:00,
2015-05-04 00:31:00,59.8,56.2,29.86,NNE,22,2.0,2.0,88,0.00,,,0.00,Wunderground v.1.15,2015-05-04 05:31:00,
2015-05-04 00:41:00,59.8,56.2,29.87,NNW,337,2.0,3.0,88,0.00,,,0.00,Wunderground v.1.15,2015-05-04 05:41:00,
2015-05-04 00:51:00,59.8,55.9,29.87,NNE,31,2.0,2.0,87,0.00,,,0.00,Wunderground v.1.15,2015-05-04 05:51:00,
2015-05-04 01:01:00,59.8,55.6,29.87,NNE,19,2.0,3.0,86,0.00,,,0.00,Wunderground v.1.15,2015-05-04 06:01:00,
2015-05-04 01:11:00,59.7,54.9,29.87,North,355,3.0,3.0,84,0.00,,,0.00,Wunderground v.1.15,2015-05-04 06:11:00,
2015-05-04 01:21:00,59.1,54.9,29.86,North,5,4.0,4.0,86,0.18,,,0.02,Wunderground v.1.15,2015-05-04 06:21:00,
2015-05-04 01:31:00,58.3,54.1,29.85,NNE,27,3.0,3.0,86,0.04,,,0.02,Wunderground v.1.15,2015-05-04 06:31:00,
2015-05-04 01:41:00,58.4,54.2,29.87,NE,37,2.0,4.0,86,0.00,,,0.02,Wunderground v.1.15,2015-05-04 06:41:00,
2015-05-04 01:51:00,58.4,53.9,29.88,NNW,338,2.0,2.0,85,0.00,,,0.02,Wunderground v.1.15,2015-05-04 06:51:00,
2015-05-04 02:01:00,58.2,54.0,29.89,NNW,336,1.0,1.0,86,0.00,,,0.02,Wunderground v.1.15,2015-05-04 07:01:00,
2015-05-04 02:11:00,58.1,53.9,29.91,NW,306,1.0,1.0,86,0.00,,,0.02,Wunderground v.1.15,2015-05-04 07:11:00,
2015-05-04 02:21:00,58.0,53.8,29.91,NNW,346,2.0,2.0,86,0.00,,,0.02,Wunderground v.1.15,2015-05-04 07:21:00,
2015-05-04 02:31:00,57.7,53.9,29.90,NNW,348,1.0,1.0,87,0.00,,,0.03,Wunderground v.1.15,2015-05-04 07:31:00,
2015-05-04 02:41:00,57.2,53.7,29.90,NW,323,2.0,2.0,88,0.08,,,0.04,Wunderground v.1.15,2015-05-04 07:41:00,
2015-05-04 02:51:00,56.8,53.6,29.89,North,9,2.0,2.0,89,0.04,,,0.05,Wunderground v.1.15,2015-05-04 07:51:00,
2015-05-04 03:01:00,56.7,53.5,29.90,NNE,19,1.0,2.0,89,0.04,,,0.05,Wunderground v.1.15,2015-05-04 08:01:00,
2015-05-04 03:11:00,56.7,53.5,29.89,NNW,327,2.0,2.0,89,0.00,,,0.05,Wunderground v.1.15,2015-05-04 08:11:00,
2015-05-04 03:21:00,56.5,53.0,29.89,NNW,348,2.0,2.0,88,0.00,,,0.05,Wunderground v.1.15,2015-05-04 08:21:00,
2015-05-04 03:31:00,56.7,52.9,29.88,North,10,2.0,2.0,87,0.00,,,0.05,Wunderground v.1.15,2015-05-04 08:31:00,
2015-05-04 03:41:00,56.8,53.0,29.88,NNW,340,2.0,3.0,87,0.00,,,0.05,Wunderground v.1.15,2015-05-04 08:41:00,
2015-05-04 03:51:00,56.8,52.3,29.87,ENE,61,3.0,3.0,85,0.00,,,0.05,Wunderground v.1.15,2015-05-04 08:51:00,
2015-05-04 04:01:00,56.5,52.4,29.88,North,351,3.0,3.0,86,0.00,,,0.06,Wunderground v.1.15,2015-05-04 09:01:00,
2015-05-04 04:11:00,56.3,51.5,29.90,North,349,2.0,2.0,84,0.00,,,0.06,Wunderground v.1.15,2015-05-04 09:11:00,
2015-05-04 04:21:00,56.1,50.7,29.92,North,351,2.0,2.0,82,0.00,,,0.06,Wunderground v.1.15,2015-05-04 09:21:00,
2015-05-04 04:31:00,55.9,50.5,29.92,NNE,27,2.0,3.0,82,0.00,,,0.06,Wunderground v.1.15,2015-05-04 09:31:00,
2015-05-04 04:41:00,55.7,50.0,29.94,NNE,15,2.0,2.0,81,0.00,,,0.06,Wunderground v.1.15,2015-05-04 09:41:00,
2015-05-04 04:51:00,55.4,50.0,29.95,ENE,57,2.0,2.0,82,0.00,,,0.06,Wunderground v.1.15,2015-05-04 09:51:00,
2015-05-04 05:01:00,55.0,49.9,29.96,East,79,2.0,2.0,83,0.00,,,0.06,Wunderground v.1.15,2015-05-04 10:01:00,
2015-05-04 05:11:00,54.7,49.6,29.97,NE,36,1.0,2.0,83,0.00,,,0.06,Wunderground v.1.15,2015-05-04 10:11:00,
2015-05-04 05:21:00,54.6,49.2,29.97,NNE,26,2.0,2.0,82,0.00,,,0.06,Wunderground v.1.15,2015-05-04 10:21:00,
2015-05-04 05:31:00,54.5,49.4,29.99,NW,325,1.0,3.0,83,0.00,,,0.06,Wunderground v.1.15,2015-05-04 10:31:00,
2015-05-04 05:41:00,54.2,50.1,30.00,West,259,1.0,1.0,86,0.00,,,0.06,Wunderground v.1.15,2015-05-04 10:41:00,
2015-05-04 05:51:00,53.9,49.8,30.00,West,259,0.0,2.0,86,0.00,,,0.06,Wunderground v.1.15,2015-05-04 10:51:00,
2015-05-04 06:01:00,53.7,49.6,30.01,West,259,1.0,1.0,86,0.00,,,0.06,Wunderground v.1.15,2015-05-04 11:01:00,
2015-05-04 06:11:00,53.5,49.1,30.00,NNW,346,1.0,1.0,85,0.00,,,0.06,Wunderground v.1.15,2015-05-04 11:11:00,
2015-05-04 06:21:00,53.8,49.1,30.00,NE,49,2.0,2.0,84,0.00,,,0.06,Wunderground v.1.15,2015-05-04 11:21:00,
2015-05-04 06:31:00,53.9,49.2,29.99,NE,49,2.0,2.0,84,0.00,,,0.06,Wunderground v.1.15,2015-05-04 11:31:00,
2015-05-04 06:41:00,53.8,49.1,30.00,NE,49,1.0,1.0,84,0.00,,,0.06,Wunderground v.1.15,2015-05-04 11:41:00,
2015-05-04 06:51:00,53.9,49.2,30.00,North,360,1.0,2.0,84,0.00,,,0.06,Wunderground v.1.15,2015-05-04 11:51:00,
2015-05-04 07:01:00,54.0,49.6,30.00,North,360,1.0,1.0,85,0.00,,,0.06,Wunderground v.1.15,2015-05-04 12:01:00,
2015-05-04 07:11:00,54.0,49.6,30.01,NNE,19,1.0,3.0,85,0.00,,,0.06,Wunderground v.1.15,2015-05-04 12:11:00,
2015-05-04 07:21:00,54.1,49.7,30.01,North,11,2.0,2.0,85,0.00,,,0.06,Wunderground v.1.15,2015-05-04 12:21:00,
2015-05-04 07:31:00,54.3,50.2,30.00,NNW,341,3.0,3.0,86,0.00,,,0.06,Wunderground v.1.15,2015-05-04 12:31:00,
2015-05-04 07:41:00,54.8,50.4,30.00,NNE,30,3.0,4.0,85,0.00,,,0.06,Wunderground v.1.15,2015-05-04 12:41:00,
2015-05-04 07:51:00,55.2,50.4,30.01,NNE,23,3.0,3.0,84,0.00,,,0.06,Wunderground v.1.15,2015-05-04 12:51:00,